createdAt,value
2019-02-26T00:00:58.530Z,91.15
2019-02-26T00:01:58.004Z,92.85
2019-02-26T00:03:01.759Z,93.89
2019-02-26T00:03:56.520Z,95.50
2019-02-26T00:04:58.459Z,95.88
2019-02-26T00:05:56.806Z,96.92
2019-02-26T00:06:57.813Z,98.90
2019-02-26T00:07:57.829Z,99.99
2019-02-26T00:08:58.605Z,99.99
2019-02-26T00:09:57.545Z,99.99
2019-02-26T00:10:58.535Z,99.99
2019-02-26T00:11:55.843Z,99.99
2019-02-26T00:12:55.763Z,99.99
2019-02-26T00:13:57.328Z,99.99
2019-02-26T00:14:56.918Z,99.47
2019-02-26T00:15:55.514Z,95.88
2019-02-26T00:16:55.427Z,92.57
2019-02-26T00:17:55.338Z,90.30
2019-02-26T00:18:56.267Z,89.36
2019-02-26T00:19:55.175Z,89.17
2019-02-26T00:20:56.667Z,89.45
2019-02-26T00:21:55.008Z,90.49
2019-02-26T00:22:55.861Z,92.47
2019-02-26T00:23:54.840Z,93.80
2019-02-26T00:24:54.756Z,92.66
2019-02-26T00:25:54.672Z,93.70
2019-02-26T00:26:54.588Z,94.65
2019-02-26T00:27:56.348Z,94.84
2019-02-26T00:28:54.422Z,95.12
2019-02-26T00:29:55.188Z,93.70
2019-02-26T00:30:55.119Z,91.34
2019-02-26T00:31:56.109Z,90.30
2019-02-26T00:32:55.346Z,89.73
2019-02-26T00:33:54.000Z,89.73
2019-02-26T00:34:55.822Z,90.20
2019-02-26T00:35:53.834Z,90.39
2019-02-26T00:36:53.749Z,90.49
2019-02-26T00:37:55.740Z,92.29
2019-02-26T00:38:53.588Z,93.51
2019-02-26T00:39:54.140Z,95.21
2019-02-26T00:40:54.982Z,96.16
2019-02-26T00:41:54.049Z,96.54
2019-02-26T00:42:56.490Z,95.78
2019-02-26T00:43:53.509Z,95.03
2019-02-26T00:44:55.333Z,93.99
2019-02-26T00:45:53.457Z,92.76
2019-02-26T00:46:53.597Z,91.67
2019-02-26T00:47:52.828Z,89.54
2019-02-26T00:48:52.740Z,88.17
2019-02-26T00:49:53.491Z,86.47
2019-02-26T00:50:54.314Z,86.38
2019-02-26T00:51:52.864Z,87.04
2019-02-26T00:52:54.623Z,88.27
2019-02-26T00:53:53.318Z,90.35
2019-02-26T00:54:53.582Z,93.84
2019-02-26T00:55:54.306Z,96.30
2019-02-26T00:56:52.071Z,98.38
2019-02-26T00:57:51.993Z,99.71
2019-02-26T00:58:51.897Z,99.99
2019-02-26T00:59:51.817Z,99.99
2019-02-26T01:00:51.729Z,99.99
2019-02-26T01:01:52.624Z,99.99
2019-02-26T01:02:51.566Z,99.99
2019-02-26T01:03:51.939Z,99.99
2019-02-26T01:04:51.395Z,99.99
2019-02-26T01:05:51.334Z,99.99
2019-02-26T01:06:51.231Z,99.04
2019-02-26T01:07:52.597Z,99.14
2019-02-26T01:08:51.063Z,99.52
2019-02-26T01:09:52.493Z,99.99
2019-02-26T01:10:50.888Z,99.99
2019-02-26T01:11:51.958Z,99.99
2019-02-26T01:12:50.719Z,99.99
2019-02-26T01:13:51.201Z,99.99
2019-02-26T01:14:50.557Z,99.99
2019-02-26T01:15:50.471Z,98.66
2019-02-26T01:16:50.390Z,98.95
2019-02-26T01:17:50.305Z,98.76
2019-02-26T01:18:51.113Z,99.99
2019-02-26T01:19:50.134Z,99.52
2019-02-26T01:20:50.685Z,99.14
2019-02-26T01:21:49.974Z,98.10
2019-02-26T01:22:49.880Z,97.25
2019-02-26T01:23:49.800Z,96.30
2019-02-26T01:24:50.236Z,93.66
2019-02-26T01:25:49.633Z,91.10
2019-02-26T01:26:49.556Z,89.40
2019-02-26T01:27:51.078Z,87.89
2019-02-26T01:28:51.167Z,89.12
2019-02-26T01:29:51.272Z,91.10
2019-02-26T01:30:53.651Z,93.75
2019-02-26T01:31:49.125Z,96.96
2019-02-26T01:32:49.043Z,99.99
2019-02-26T01:33:50.747Z,99.99
2019-02-26T01:34:49.546Z,99.99
2019-02-26T01:35:50.206Z,99.99
2019-02-26T01:36:49.602Z,99.99
2019-02-26T01:37:49.356Z,99.99
2019-02-26T01:38:49.170Z,99.99
2019-02-26T01:39:50.175Z,99.99
2019-02-26T01:40:51.071Z,99.99
2019-02-26T01:41:50.380Z,99.99
2019-02-26T01:42:52.228Z,99.99
2019-02-26T01:43:48.107Z,99.99
2019-02-26T01:44:48.030Z,99.99
2019-02-26T01:45:48.606Z,99.99
2019-02-26T01:46:47.862Z,99.99
2019-02-26T01:47:48.791Z,99.99
2019-02-26T01:48:47.694Z,99.99
2019-02-26T01:49:49.405Z,99.99
2019-02-26T01:50:47.526Z,99.99
2019-02-26T01:51:49.514Z,99.99
2019-02-26T01:52:47.359Z,98.66
2019-02-26T01:53:49.073Z,96.78
2019-02-26T01:54:47.186Z,94.22
2019-02-26T01:55:48.309Z,93.94
2019-02-26T01:56:47.016Z,93.37
2019-02-26T01:57:46.935Z,93.75
2019-02-26T01:58:56.165Z,93.75
2019-02-26T01:59:47.396Z,94.41
2019-02-26T02:00:46.693Z,94.03
2019-02-26T02:01:48.890Z,93.75
2019-02-26T02:02:46.513Z,93.75
2019-02-26T02:03:47.033Z,92.80
2019-02-26T02:04:46.350Z,91.67
2019-02-26T02:05:47.850Z,92.14
2019-02-26T02:06:46.178Z,92.80
2019-02-26T02:07:47.219Z,93.47
2019-02-26T02:08:48.117Z,94.79
2019-02-26T02:09:48.654Z,96.49
2019-02-26T02:10:45.836Z,96.68
2019-02-26T02:11:45.753Z,97.63
2019-02-26T02:12:45.667Z,98.10
2019-02-26T02:13:45.586Z,98.85
2019-02-26T02:14:45.502Z,98.38
2019-02-26T02:15:46.549Z,96.59
2019-02-26T02:16:45.333Z,95.83
2019-02-26T02:17:45.246Z,95.92
2019-02-26T02:18:48.146Z,96.11
2019-02-26T02:19:45.076Z,96.78
2019-02-26T02:20:44.994Z,97.34
2019-02-26T02:21:46.897Z,97.34
2019-02-26T02:22:44.822Z,96.87
2019-02-26T02:23:46.430Z,93.56
2019-02-26T02:24:46.709Z,92.14
2019-02-26T02:25:45.657Z,92.71
2019-02-26T02:26:47.497Z,92.99
2019-02-26T02:27:47.696Z,92.33
2019-02-26T02:28:44.321Z,92.24
2019-02-26T02:29:46.125Z,93.37
2019-02-26T02:30:44.143Z,94.70
2019-02-26T02:31:44.066Z,95.83
2019-02-26T02:32:43.999Z,96.96
2019-02-26T02:33:43.903Z,98.76
2019-02-26T02:34:43.820Z,99.99
2019-02-26T02:35:43.731Z,99.99
2019-02-26T02:36:43.642Z,99.99
2019-02-26T02:37:43.559Z,99.99
2019-02-26T02:38:43.478Z,99.99
2019-02-26T02:39:43.387Z,99.99
2019-02-26T02:40:46.168Z,99.99
2019-02-26T02:41:45.431Z,99.99
2019-02-26T02:42:45.733Z,99.99
2019-02-26T02:43:43.052Z,99.99
2019-02-26T02:44:44.846Z,99.99
2019-02-26T02:45:42.889Z,99.99
2019-02-26T02:46:44.580Z,99.99
2019-02-26T02:47:42.709Z,99.99
2019-02-26T02:48:42.623Z,99.99
2019-02-26T02:49:44.328Z,99.99
2019-02-26T02:50:42.452Z,99.99
2019-02-26T02:51:42.376Z,99.99
2019-02-26T02:52:42.290Z,99.99
2019-02-26T02:53:45.010Z,99.99
2019-02-26T02:54:43.956Z,99.99
2019-02-26T02:55:44.257Z,99.99
2019-02-26T02:56:44.254Z,99.99
2019-02-26T02:57:41.865Z,99.99
2019-02-26T02:58:43.613Z,99.99
2019-02-26T02:59:42.226Z,99.99
2019-02-26T03:00:41.614Z,97.91
2019-02-26T03:01:43.076Z,94.79
2019-02-26T03:02:43.390Z,94.32
2019-02-26T03:03:41.357Z,94.89
2019-02-26T03:04:41.292Z,96.02
2019-02-26T03:05:43.211Z,96.49
2019-02-26T03:06:41.125Z,96.87
2019-02-26T03:07:42.277Z,98.10
2019-02-26T03:08:42.372Z,99.14
2019-02-26T03:09:43.065Z,99.99
2019-02-26T03:10:43.063Z,99.99
2019-02-26T03:11:41.971Z,99.99
2019-02-26T03:12:40.598Z,99.99
2019-02-26T03:13:42.916Z,99.99
2019-02-26T03:14:42.101Z,99.99
2019-02-26T03:15:40.345Z,99.99
2019-02-26T03:16:42.478Z,99.99
2019-02-26T03:17:40.175Z,99.99
2019-02-26T03:18:40.091Z,99.99
2019-02-26T03:19:41.603Z,99.99
2019-02-26T03:20:40.440Z,99.99
2019-02-26T03:21:41.932Z,99.99
2019-02-26T03:22:45.096Z,99.99
2019-02-26T03:23:41.211Z,99.99
2019-02-26T03:24:39.579Z,98.71
2019-02-26T03:25:41.377Z,95.68
2019-02-26T03:26:39.416Z,93.61
2019-02-26T03:27:40.582Z,92.85
2019-02-26T03:28:39.971Z,92.38
2019-02-26T03:29:39.158Z,94.18
2019-02-26T03:30:43.882Z,95.78
2019-02-26T03:31:41.022Z,98.33
2019-02-26T03:32:41.284Z,99.99
2019-02-26T03:33:38.822Z,99.99
2019-02-26T03:34:38.751Z,99.99
2019-02-26T03:35:38.665Z,99.99
2019-02-26T03:36:40.805Z,99.99
2019-02-26T03:37:38.486Z,99.99
2019-02-26T03:38:38.398Z,99.99
2019-02-26T03:39:38.313Z,99.99
2019-02-26T03:40:38.226Z,99.99
2019-02-26T03:41:38.147Z,99.99
2019-02-26T03:42:39.023Z,99.99
2019-02-26T03:43:39.290Z,99.99
2019-02-26T03:44:37.893Z,99.99
2019-02-26T03:45:37.806Z,99.99
2019-02-26T03:46:37.720Z,99.99
2019-02-26T03:47:40.029Z,99.99
2019-02-26T03:48:37.551Z,99.99
2019-02-26T03:49:41.672Z,99.99
2019-02-26T03:50:37.388Z,99.99
2019-02-26T03:51:39.732Z,99.99
2019-02-26T03:52:37.214Z,99.99
2019-02-26T03:53:39.245Z,99.99
2019-02-26T03:54:39.840Z,99.99
2019-02-26T03:55:38.974Z,99.99
2019-02-26T03:56:36.872Z,99.99
2019-02-26T03:57:41.072Z,99.99
2019-02-26T03:58:36.719Z,99.99
2019-02-26T03:59:36.623Z,99.99
2019-02-26T04:00:38.434Z,99.99
2019-02-26T04:01:36.448Z,98.90
2019-02-26T04:02:37.511Z,96.54
2019-02-26T04:03:37.600Z,94.84
2019-02-26T04:04:36.190Z,95.31
2019-02-26T04:05:36.115Z,96.16
2019-02-26T04:06:38.365Z,97.39
2019-02-26T04:07:36.144Z,98.71
2019-02-26T04:08:35.856Z,98.52
2019-02-26T04:09:39.113Z,94.84
2019-02-26T04:10:35.694Z,92.66
2019-02-26T04:11:35.601Z,92.10
2019-02-26T04:12:39.150Z,92.00
2019-02-26T04:13:35.434Z,92.29
2019-02-26T04:14:35.369Z,93.32
2019-02-26T04:15:36.455Z,93.89
2019-02-26T04:16:35.940Z,93.61
2019-02-26T04:17:36.981Z,92.57
2019-02-26T04:18:35.004Z,92.85
2019-02-26T04:19:34.922Z,92.66
2019-02-26T04:20:34.845Z,92.85
2019-02-26T04:21:34.751Z,93.70
2019-02-26T04:22:34.675Z,94.84
2019-02-26T04:23:36.085Z,95.40
2019-02-26T04:24:37.384Z,96.35
2019-02-26T04:25:36.518Z,97.58
2019-02-26T04:26:35.082Z,97.29
2019-02-26T04:27:36.300Z,97.96
2019-02-26T04:28:37.177Z,97.48
2019-02-26T04:29:36.109Z,96.73
2019-02-26T04:30:36.532Z,97.39
2019-02-26T04:31:33.907Z,97.96
2019-02-26T04:32:37.791Z,98.71
2019-02-26T04:33:36.006Z,99.27
2019-02-26T04:34:33.650Z,99.99
2019-02-26T04:35:33.565Z,99.99
2019-02-26T04:36:34.440Z,99.99
2019-02-26T04:37:35.222Z,99.99
2019-02-26T04:38:33.311Z,99.99
2019-02-26T04:39:34.483Z,99.99
2019-02-26T04:40:35.764Z,99.99
2019-02-26T04:41:33.059Z,99.99
2019-02-26T04:42:35.204Z,99.99
2019-02-26T04:43:34.146Z,99.99
2019-02-26T04:44:34.232Z,99.99
2019-02-26T04:45:32.712Z,99.99
2019-02-26T04:46:34.452Z,99.99
2019-02-26T04:47:33.733Z,99.99
2019-02-26T04:48:34.265Z,99.99
2019-02-26T04:49:34.000Z,99.99
2019-02-26T04:50:35.334Z,99.99
2019-02-26T04:51:35.859Z,99.99
2019-02-26T04:52:34.708Z,99.99
2019-02-26T04:53:35.857Z,99.99
2019-02-26T04:54:33.689Z,99.99
2019-02-26T04:55:35.025Z,99.99
2019-02-26T04:56:36.027Z,99.99
2019-02-26T04:57:31.697Z,99.99
2019-02-26T04:58:31.611Z,99.99
2019-02-26T04:59:32.435Z,99.99
2019-02-26T05:00:35.342Z,99.99
2019-02-26T05:01:31.353Z,99.99
2019-02-26T05:02:31.272Z,99.99
2019-02-26T05:03:31.194Z,99.99
2019-02-26T05:04:33.805Z,99.99
2019-02-26T05:05:33.714Z,99.99
2019-02-26T05:06:30.930Z,99.99
2019-02-26T05:07:32.818Z,99.99
2019-02-26T05:08:32.134Z,99.99
2019-02-26T05:09:32.825Z,99.99
2019-02-26T05:10:32.299Z,99.99
2019-02-26T05:11:32.642Z,99.99
2019-02-26T05:12:33.399Z,99.99
2019-02-26T05:13:32.622Z,99.99
2019-02-26T05:14:30.256Z,99.99
2019-02-26T05:15:33.061Z,99.99
2019-02-26T05:16:32.700Z,99.99
2019-02-26T05:17:32.978Z,99.99
2019-02-26T05:18:32.697Z,99.99
2019-02-26T05:19:29.826Z,99.99
2019-02-26T05:20:31.424Z,99.99
2019-02-26T05:21:30.398Z,99.99
2019-02-26T05:22:30.981Z,99.99
2019-02-26T05:23:31.698Z,99.99
2019-02-26T05:24:29.403Z,99.99
2019-02-26T05:25:31.298Z,99.99
2019-02-26T05:26:30.166Z,99.99
2019-02-26T05:27:29.149Z,99.99
2019-02-26T05:28:29.883Z,99.99
2019-02-26T05:29:28.980Z,99.99
2019-02-26T05:30:28.895Z,99.99
2019-02-26T05:31:29.809Z,99.99
2019-02-26T05:32:30.956Z,99.99
2019-02-26T05:33:30.970Z,99.99
2019-02-26T05:34:28.556Z,99.99
2019-02-26T05:35:28.470Z,99.99
2019-02-26T05:36:28.466Z,99.99
2019-02-26T05:37:29.165Z,99.18
2019-02-26T05:38:30.571Z,97.10
2019-02-26T05:39:28.809Z,97.10
2019-02-26T05:40:28.047Z,98.43
2019-02-26T05:41:27.963Z,99.99
2019-02-26T05:42:27.887Z,99.99
2019-02-26T05:43:28.285Z,99.99
2019-02-26T05:44:27.707Z,99.99
2019-02-26T05:45:30.017Z,99.99
2019-02-26T05:46:29.508Z,99.99
2019-02-26T05:47:27.451Z,99.99
2019-02-26T05:48:27.388Z,99.99
2019-02-26T05:49:27.289Z,99.99
2019-02-26T05:50:29.563Z,99.99
2019-02-26T05:51:27.937Z,99.99
2019-02-26T05:52:28.130Z,99.99
2019-02-26T05:53:26.941Z,99.99
2019-02-26T05:54:26.863Z,99.99
2019-02-26T05:55:28.157Z,99.99
2019-02-26T05:56:26.687Z,99.99
2019-02-26T05:57:32.334Z,99.99
2019-02-26T05:58:26.516Z,99.99
2019-02-26T05:59:26.431Z,99.99
2019-02-26T06:00:30.620Z,99.99
2019-02-26T06:01:27.864Z,99.99
2019-02-26T06:02:26.177Z,99.99
2019-02-26T06:03:26.100Z,99.99
2019-02-26T06:04:26.008Z,99.99
2019-02-26T06:05:26.202Z,99.99
2019-02-26T06:06:25.836Z,99.99
2019-02-26T06:07:29.738Z,99.99
2019-02-26T06:08:29.146Z,99.99
2019-02-26T06:09:28.083Z,99.99
2019-02-26T06:10:27.202Z,99.99
2019-02-26T06:11:28.290Z,99.99
2019-02-26T06:12:25.326Z,99.99
2019-02-26T06:13:25.249Z,99.99
2019-02-26T06:14:27.420Z,99.99
2019-02-26T06:15:25.945Z,99.99
2019-02-26T06:16:27.134Z,99.99
2019-02-26T06:17:24.908Z,99.99
2019-02-26T06:18:24.819Z,99.99
2019-02-26T06:19:24.742Z,99.99
2019-02-26T06:20:26.711Z,99.99
2019-02-26T06:21:26.032Z,99.99
2019-02-26T06:22:27.190Z,99.99
2019-02-26T06:23:25.536Z,99.99
2019-02-26T06:24:24.841Z,99.99
2019-02-26T06:25:24.705Z,99.99
2019-02-26T06:26:28.115Z,99.99
2019-02-26T06:27:25.211Z,99.99
2019-02-26T06:28:23.968Z,99.99
2019-02-26T06:29:24.731Z,99.99
2019-02-26T06:30:23.799Z,99.99
2019-02-26T06:31:24.914Z,99.99
2019-02-26T06:32:27.519Z,99.99
2019-02-26T06:33:23.542Z,99.99
2019-02-26T06:34:23.457Z,99.99
2019-02-26T06:35:23.370Z,99.99
2019-02-26T06:36:23.901Z,99.99
2019-02-26T06:37:23.668Z,99.99
2019-02-26T06:38:24.222Z,99.99
2019-02-26T06:39:24.562Z,99.99
2019-02-26T06:40:22.945Z,99.08
2019-02-26T06:41:22.861Z,98.80
2019-02-26T06:42:22.783Z,98.05
2019-02-26T06:43:22.696Z,99.37
2019-02-26T06:44:22.599Z,99.99
2019-02-26T06:45:22.520Z,99.99
2019-02-26T06:46:22.440Z,99.99
2019-02-26T06:47:24.117Z,99.99
2019-02-26T06:48:24.522Z,99.99
2019-02-26T06:49:24.167Z,99.99
2019-02-26T06:50:22.106Z,99.99
2019-02-26T06:51:24.315Z,99.99
2019-02-26T06:52:21.929Z,99.99
2019-02-26T06:53:21.844Z,99.99
2019-02-26T06:54:22.727Z,99.99
2019-02-26T06:55:21.670Z,99.99
2019-02-26T06:56:21.582Z,99.99
2019-02-26T06:57:21.565Z,99.99
2019-02-26T06:58:21.414Z,99.99
2019-02-26T06:59:21.326Z,99.99
2019-02-26T07:00:23.905Z,99.99
2019-02-26T07:01:21.163Z,99.99
2019-02-26T07:02:21.077Z,99.99
2019-02-26T07:03:24.193Z,99.99
2019-02-26T07:04:20.908Z,99.99
2019-02-26T07:05:23.842Z,99.99
2019-02-26T07:06:22.967Z,99.99
2019-02-26T07:07:20.654Z,99.99
2019-02-26T07:08:21.971Z,99.99
2019-02-26T07:09:20.549Z,99.99
2019-02-26T07:10:23.671Z,99.99
2019-02-26T07:11:20.311Z,99.99
2019-02-26T07:12:22.215Z,99.99
2019-02-26T07:13:20.150Z,99.99
2019-02-26T07:14:20.057Z,99.99
2019-02-26T07:15:19.980Z,99.99
2019-02-26T07:16:20.620Z,99.99
2019-02-26T07:17:19.803Z,99.99
2019-02-26T07:18:19.780Z,99.99
2019-02-26T07:19:19.630Z,99.99
2019-02-26T07:20:19.546Z,99.99
2019-02-26T07:21:19.465Z,99.99
2019-02-26T07:22:19.377Z,99.99
2019-02-26T07:23:19.301Z,99.99
2019-02-26T07:24:20.698Z,99.99
2019-02-26T07:25:19.126Z,99.99
2019-02-26T07:26:20.782Z,99.99
2019-02-26T07:27:18.953Z,99.99
2019-02-26T07:28:20.642Z,99.99
2019-02-26T07:29:18.789Z,99.99
2019-02-26T07:30:18.702Z,99.99
2019-02-26T07:31:18.618Z,99.99
2019-02-26T07:32:20.212Z,99.99
2019-02-26T07:33:18.448Z,99.99
2019-02-26T07:34:20.447Z,99.99
2019-02-26T07:35:18.287Z,99.99
2019-02-26T07:36:20.641Z,99.99
2019-02-26T07:37:18.107Z,99.99
2019-02-26T07:38:18.250Z,99.99
2019-02-26T07:39:20.086Z,99.99
2019-02-26T07:40:18.629Z,99.99
2019-02-26T07:41:18.860Z,99.99
2019-02-26T07:42:18.805Z,99.99
2019-02-26T07:43:19.489Z,99.99
2019-02-26T07:44:18.751Z,99.99
2019-02-26T07:45:19.681Z,99.99
2019-02-26T07:46:19.200Z,99.99
2019-02-26T07:47:17.271Z,99.99
2019-02-26T07:48:21.108Z,99.99
2019-02-26T07:49:17.095Z,99.99
2019-02-26T07:50:17.467Z,99.99
2019-02-26T07:51:16.929Z,99.99
2019-02-26T07:52:16.844Z,99.99
2019-02-26T07:53:18.038Z,99.99
2019-02-26T07:54:16.685Z,99.99
2019-02-26T07:55:17.428Z,99.99
2019-02-26T07:56:16.515Z,99.99
2019-02-26T07:57:18.084Z,98.96
2019-02-26T07:58:17.808Z,97.35
2019-02-26T07:59:16.256Z,95.64
2019-02-26T08:00:16.177Z,94.42
2019-02-26T08:01:16.093Z,93.70
2019-02-26T08:02:16.015Z,93.32
2019-02-26T08:03:17.410Z,94.37
2019-02-26T08:04:18.269Z,93.89
2019-02-26T08:05:16.970Z,95.31
2019-02-26T08:06:15.683Z,94.65
2019-02-26T08:07:15.589Z,94.32
2019-02-26T08:08:17.042Z,95.17
2019-02-26T08:09:17.132Z,94.98
2019-02-26T08:10:16.975Z,94.51
2019-02-26T08:11:15.255Z,94.32
2019-02-26T08:12:15.170Z,94.51
2019-02-26T08:13:15.093Z,93.70
2019-02-26T08:14:16.104Z,93.41
2019-02-26T08:15:15.426Z,92.57
2019-02-26T08:16:14.846Z,91.61
2019-02-26T08:17:14.759Z,89.06
2019-02-26T08:18:14.679Z,88.43
2019-02-26T08:19:14.596Z,87.11
2019-02-26T08:20:14.872Z,87.87
2019-02-26T08:21:14.441Z,86.44
2019-02-26T08:22:14.350Z,85.02
2019-02-26T08:23:14.753Z,85.59
2019-02-26T08:24:14.890Z,86.72
2019-02-26T08:25:14.101Z,86.91
2019-02-26T08:26:15.516Z,86.87
2019-02-26T08:27:13.939Z,87.43
2019-02-26T08:28:15.444Z,86.96
2019-02-26T08:29:13.773Z,85.44
2019-02-26T08:30:14.746Z,84.59
2019-02-26T08:31:15.621Z,85.25
2019-02-26T08:32:15.882Z,84.68
2019-02-26T08:33:13.444Z,84.40
2019-02-26T08:34:15.681Z,84.78
2019-02-26T08:35:13.285Z,84.40
2019-02-26T08:36:14.107Z,83.97
2019-02-26T08:37:13.118Z,83.01
2019-02-26T08:38:13.039Z,82.35
2019-02-26T08:39:15.615Z,81.68
2019-02-26T08:40:12.874Z,81.97
2019-02-26T08:41:12.793Z,81.68
2019-02-26T08:42:12.726Z,80.35
2019-02-26T08:43:12.639Z,80.74
2019-02-26T08:44:12.561Z,80.55
2019-02-26T08:45:14.896Z,81.12
2019-02-26T08:46:14.141Z,81.30
2019-02-26T08:47:13.908Z,80.49
2019-02-26T08:48:14.702Z,80.96
2019-02-26T08:49:13.778Z,80.68
2019-02-26T08:50:12.974Z,80.40
2019-02-26T08:51:15.794Z,79.44
2019-02-26T08:52:11.909Z,77.87
2019-02-26T08:53:11.820Z,77.87
2019-02-26T08:54:20.577Z,78.25
2019-02-26T08:55:13.089Z,78.63
2019-02-26T08:56:11.575Z,78.67
2019-02-26T08:57:12.026Z,78.34
2019-02-26T08:58:12.549Z,76.86
2019-02-26T08:59:11.340Z,77.15
2019-02-26T09:00:11.261Z,76.29
2019-02-26T09:01:11.187Z,75.19
2019-02-26T09:02:11.098Z,74.90
2019-02-26T09:03:13.235Z,74.14
2019-02-26T09:04:12.354Z,73.57
2019-02-26T09:05:11.938Z,73.19
2019-02-26T09:06:13.451Z,73.10
2019-02-26T09:07:10.699Z,73.61
2019-02-26T09:08:12.842Z,73.28
2019-02-26T09:09:10.540Z,73.47
2019-02-26T09:10:12.464Z,73.19
2019-02-26T09:11:11.458Z,72.52
2019-02-26T09:12:10.300Z,72.81
2019-02-26T09:13:11.528Z,73.19
2019-02-26T09:14:12.145Z,72.42
2019-02-26T09:15:10.056Z,72.24
2019-02-26T09:16:09.983Z,73.00
2019-02-26T09:17:09.900Z,73.32
2019-02-26T09:18:09.824Z,73.32
2019-02-26T09:19:09.742Z,72.37
2019-02-26T09:20:12.223Z,71.03
2019-02-26T09:21:10.194Z,70.31
2019-02-26T09:22:11.740Z,69.17
2019-02-26T09:23:09.427Z,68.88
2019-02-26T09:24:09.346Z,68.59
2019-02-26T09:25:09.272Z,69.07
2019-02-26T09:26:09.187Z,69.54
2019-02-26T09:27:09.109Z,70.44
2019-02-26T09:28:09.034Z,68.72
2019-02-26T09:29:10.306Z,69.01
2019-02-26T09:30:11.028Z,69.01
2019-02-26T09:31:09.638Z,68.63
2019-02-26T09:32:09.302Z,68.47
2019-02-26T09:33:10.923Z,66.28
2019-02-26T09:34:08.560Z,65.80
2019-02-26T09:35:08.478Z,65.70
2019-02-26T09:36:10.556Z,65.61
2019-02-26T09:37:08.323Z,64.09
2019-02-26T09:38:08.241Z,64.47
2019-02-26T09:39:08.712Z,65.42
2019-02-26T09:40:08.091Z,65.64
2019-02-26T09:41:10.021Z,65.74
2019-02-26T09:42:09.186Z,64.78
2019-02-26T09:43:07.853Z,63.64
2019-02-26T09:44:09.651Z,64.02
2019-02-26T09:45:07.690Z,62.68
2019-02-26T09:46:10.149Z,62.68
2019-02-26T09:47:07.685Z,62.68
2019-02-26T09:48:07.468Z,62.78
2019-02-26T09:49:10.520Z,62.43
2019-02-26T09:50:07.314Z,62.15
2019-02-26T09:51:09.307Z,61.10
2019-02-26T09:52:07.150Z,62.05
2019-02-26T09:53:07.080Z,61.00
2019-02-26T09:54:06.993Z,60.33
2019-02-26T09:55:06.916Z,61.22
2019-02-26T09:56:06.840Z,60.46
2019-02-26T09:57:06.767Z,60.93
2019-02-26T09:58:06.684Z,59.69
2019-02-26T09:59:07.122Z,60.17
2019-02-26T10:00:06.541Z,60.55
2019-02-26T10:01:08.553Z,59.98
2019-02-26T10:02:06.379Z,59.59
2019-02-26T10:03:09.797Z,60.07
2019-02-26T10:04:06.222Z,59.69
2019-02-26T10:05:06.769Z,59.59
2019-02-26T10:06:06.064Z,59.78
2019-02-26T10:07:07.539Z,59.63
2019-02-26T10:08:05.913Z,60.01
2019-02-26T10:09:05.840Z,59.53
2019-02-26T10:10:08.053Z,59.24
2019-02-26T10:11:05.689Z,59.24
2019-02-26T10:12:07.527Z,58.67
2019-02-26T10:13:05.523Z,59.05
2019-02-26T10:14:07.786Z,59.34
2019-02-26T10:15:05.395Z,58.86
2019-02-26T10:16:06.454Z,59.72
2019-02-26T10:17:05.219Z,60.01
2019-02-26T10:18:08.782Z,59.44
2019-02-26T10:19:05.099Z,59.15
2019-02-26T10:20:07.662Z,59.34
2019-02-26T10:21:06.788Z,58.19
2019-02-26T10:22:08.992Z,58.76
2019-02-26T10:23:06.400Z,59.84
2019-02-26T10:24:04.723Z,60.13
2019-02-26T10:25:04.605Z,58.70
2019-02-26T10:26:05.804Z,57.46
2019-02-26T10:27:05.996Z,56.31
2019-02-26T10:28:08.788Z,56.60
2019-02-26T10:29:04.861Z,57.36
2019-02-26T10:30:07.197Z,57.75
2019-02-26T10:31:06.474Z,57.84
2019-02-26T10:32:04.077Z,56.60
2019-02-26T10:33:04.005Z,56.60
2019-02-26T10:34:07.892Z,56.02
2019-02-26T10:35:04.582Z,55.57
2019-02-26T10:36:05.405Z,55.19
2019-02-26T10:37:03.696Z,54.23
2019-02-26T10:38:07.680Z,54.90
2019-02-26T10:39:03.553Z,55.79
2019-02-26T10:40:03.476Z,54.36
2019-02-26T10:41:05.053Z,53.59
2019-02-26T10:42:03.321Z,53.78
2019-02-26T10:43:03.241Z,53.11
2019-02-26T10:44:03.173Z,52.25
2019-02-26T10:45:03.095Z,53.04
2019-02-26T10:46:03.027Z,52.47
2019-02-26T10:47:04.054Z,51.29
2019-02-26T10:48:02.869Z,51.29
2019-02-26T10:49:02.787Z,51.10
2019-02-26T10:50:02.749Z,52.34
2019-02-26T10:51:06.083Z,52.92
2019-02-26T10:52:02.568Z,53.14
2019-02-26T10:53:09.682Z,51.99
2019-02-26T10:54:02.837Z,51.13
2019-02-26T10:55:02.342Z,50.56
2019-02-26T10:56:02.271Z,51.32
2019-02-26T10:57:06.455Z,52.09
2019-02-26T10:58:06.836Z,51.44
2019-02-26T10:59:03.475Z,50.56
2019-02-26T11:00:02.703Z,51.22
2019-02-26T11:01:05.112Z,50.48
2019-02-26T11:02:03.151Z,51.92
2019-02-26T11:03:01.773Z,51.63
2019-02-26T11:04:04.207Z,50.00
2019-02-26T11:05:01.594Z,50.58
2019-02-26T11:06:01.518Z,50.20
2019-02-26T11:07:02.374Z,50.48
2019-02-26T11:08:02.930Z,50.03
2019-02-26T11:09:01.918Z,50.41
2019-02-26T11:10:01.222Z,51.65
2019-02-26T11:11:01.149Z,50.70
2019-02-26T11:12:05.195Z,50.22
2019-02-26T11:13:01.000Z,49.45
2019-02-26T11:14:00.922Z,49.71
2019-02-26T11:15:01.626Z,49.65
2019-02-26T11:16:03.069Z,49.05
2019-02-26T11:17:00.697Z,50.22
2019-02-26T11:18:00.618Z,51.18
2019-02-26T11:19:02.376Z,50.70
2019-02-26T11:20:01.177Z,49.36
2019-02-26T11:21:00.398Z,48.88
2019-02-26T11:22:03.445Z,49.55
2019-02-26T11:23:00.250Z,48.69
2019-02-26T11:24:00.839Z,48.59
2019-02-26T11:25:01.074Z,49.10
2019-02-26T11:26:00.021Z,48.80
2019-02-26T11:26:59.955Z,48.52
2019-02-26T11:28:02.296Z,48.21
2019-02-26T11:28:59.800Z,47.46
2019-02-26T11:30:01.786Z,47.75
2019-02-26T11:30:59.655Z,47.66
2019-02-26T11:32:01.589Z,47.66
2019-02-26T11:33:04.792Z,47.66
2019-02-26T11:34:00.939Z,48.23
2019-02-26T11:35:00.288Z,48.13
2019-02-26T11:35:59.638Z,47.08
2019-02-26T11:37:02.797Z,47.17
2019-02-26T11:37:59.134Z,45.83
2019-02-26T11:39:01.666Z,45.74
2019-02-26T11:40:00.485Z,46.60
2019-02-26T11:40:58.926Z,46.31
2019-02-26T11:42:01.121Z,46.22
2019-02-26T11:43:00.057Z,47.46
2019-02-26T11:43:58.685Z,47.58
2019-02-26T11:44:58.609Z,48.07
2019-02-26T11:45:59.188Z,47.58
2019-02-26T11:46:58.478Z,46.72
2019-02-26T11:48:01.042Z,46.24
2019-02-26T11:48:58.320Z,46.05
2019-02-26T11:49:59.686Z,46.91
2019-02-26T11:51:00.825Z,46.05
2019-02-26T11:51:58.097Z,46.05
2019-02-26T11:52:58.028Z,46.24
2019-02-26T11:54:00.093Z,46.24
2019-02-26T11:54:58.900Z,46.43
2019-02-26T11:55:59.901Z,45.76
2019-02-26T11:56:57.729Z,46.81
2019-02-26T11:57:57.649Z,47.58
2019-02-26T11:58:57.576Z,47.30
2019-02-26T11:59:59.351Z,46.72
2019-02-26T12:00:57.499Z,46.34
2019-02-26T12:01:59.103Z,47.10
2019-02-26T12:02:57.288Z,48.54
2019-02-26T12:04:03.279Z,47.30
2019-02-26T12:04:57.466Z,46.53
2019-02-26T12:06:00.579Z,46.84
2019-02-26T12:06:58.609Z,47.13
2019-02-26T12:07:58.823Z,46.07
2019-02-26T12:08:56.844Z,46.65
2019-02-26T12:09:57.957Z,45.88
2019-02-26T12:11:01.130Z,46.07
2019-02-26T12:11:58.597Z,45.98
2019-02-26T12:12:57.271Z,44.73
2019-02-26T12:13:56.479Z,44.82
2019-02-26T12:14:56.407Z,45.59
2019-02-26T12:15:56.327Z,46.07
2019-02-26T12:16:56.252Z,46.17
2019-02-26T12:17:56.876Z,47.01
2019-02-26T12:18:56.114Z,46.91
2019-02-26T12:19:57.909Z,47.39
2019-02-26T12:20:55.964Z,48.44
2019-02-26T12:21:57.450Z,47.51
2019-02-26T12:22:55.818Z,45.59
2019-02-26T12:23:57.887Z,46.07
2019-02-26T12:24:56.012Z,47.22
2019-02-26T12:25:58.261Z,46.94
2019-02-26T12:26:55.526Z,46.65
2019-02-26T12:27:55.445Z,45.88
2019-02-26T12:28:57.332Z,46.94
2019-02-26T12:29:55.301Z,45.90
2019-02-26T12:30:55.229Z,45.61
2019-02-26T12:31:55.744Z,45.32
2019-02-26T12:32:55.296Z,44.84
2019-02-26T12:33:55.015Z,45.23
2019-02-26T12:34:54.938Z,45.23
2019-02-26T12:35:56.329Z,45.42
2019-02-26T12:36:57.252Z,46.28
2019-02-26T12:37:56.643Z,45.88
2019-02-26T12:38:56.420Z,45.42
2019-02-26T12:39:57.416Z,46.09
2019-02-26T12:40:54.497Z,46.86
2019-02-26T12:41:54.463Z,46.09
2019-02-26T12:42:54.356Z,46.00
2019-02-26T12:43:54.278Z,44.94
2019-02-26T12:44:57.231Z,44.37
2019-02-26T12:45:56.067Z,45.30
2019-02-26T12:46:56.701Z,46.09
2019-02-26T12:47:55.273Z,44.75
2019-02-26T12:48:53.943Z,44.24
2019-02-26T12:49:53.836Z,44.34
2019-02-26T12:50:55.576Z,44.34
2019-02-26T12:51:54.497Z,45.30